createdAt,value
2022-10-08T00:00:07.051Z,58.61
2022-10-08T00:02:37.703Z,58.75
2022-10-08T00:05:04.155Z,58.95
2022-10-08T00:07:30.541Z,58.61
2022-10-08T00:09:56.850Z,58.48
2022-10-08T00:12:23.170Z,58.40
2022-10-08T00:14:49.482Z,58.60
2022-10-08T00:17:15.816Z,58.30
2022-10-08T00:19:45.125Z,58.42
2022-10-08T00:22:11.594Z,58.41
2022-10-08T00:24:40.020Z,58.69
2022-10-08T00:27:06.343Z,58.65
2022-10-08T00:29:33.463Z,58.46
2022-10-08T00:31:59.916Z,58.70
2022-10-08T00:34:26.323Z,58.47
2022-10-08T00:36:53.252Z,58.54
2022-10-08T00:39:19.945Z,58.80
2022-10-08T00:41:47.478Z,58.36
2022-10-08T00:44:32.706Z,58.58
2022-10-08T00:46:59.025Z,58.40
2022-10-08T00:49:25.618Z,58.43
2022-10-08T00:51:52.672Z,57.99
2022-10-08T00:54:19.375Z,58.44
2022-10-08T00:56:46.647Z,58.44
2022-10-08T00:59:12.999Z,58.32
2022-10-08T01:01:42.981Z,58.40
2022-10-08T01:04:09.507Z,58.30
2022-10-08T01:06:42.197Z,58.54
2022-10-08T01:09:23.529Z,58.61
2022-10-08T01:12:12.841Z,58.15
2022-10-08T01:14:41.691Z,58.51
2022-10-08T01:17:17.462Z,58.45
2022-10-08T01:19:48.016Z,58.63
2022-10-08T01:22:40.726Z,58.84
2022-10-08T01:25:30.423Z,58.25
2022-10-08T01:28:13.706Z,58.79
2022-10-08T01:30:40.841Z,58.45
2022-10-08T01:33:12.445Z,58.05
2022-10-08T01:35:40.376Z,58.13
2022-10-08T01:38:07.051Z,58.15
2022-10-08T01:40:36.287Z,58.59
2022-10-08T01:43:04.105Z,57.82
2022-10-08T01:45:33.125Z,58.26
2022-10-08T01:47:59.889Z,58.09
2022-10-08T01:50:28.212Z,58.22
2022-10-08T01:52:55.148Z,58.55
2022-10-08T01:55:47.897Z,58.06
2022-10-08T01:58:34.368Z,58.10
2022-10-08T02:01:02.969Z,58.09
2022-10-08T02:03:29.358Z,58.55
2022-10-08T02:05:55.697Z,58.34
2022-10-08T02:08:22.637Z,58.53
2022-10-08T02:10:48.963Z,58.40
2022-10-08T02:13:15.275Z,58.58
2022-10-08T02:15:41.515Z,58.22
2022-10-08T02:18:15.656Z,58.40
2022-10-08T02:20:47.149Z,58.09
2022-10-08T02:23:15.872Z,58.14
2022-10-08T02:25:55.178Z,57.91
2022-10-08T02:28:32.014Z,58.09
2022-10-08T02:31:09.008Z,58.30
2022-10-08T02:33:39.811Z,58.31
2022-10-08T02:36:06.259Z,58.37
2022-10-08T02:38:33.563Z,58.30
2022-10-08T02:41:00.234Z,57.82
2022-10-08T02:43:27.836Z,57.98
2022-10-08T02:45:55.542Z,58.01
2022-10-08T02:48:23.846Z,58.22
2022-10-08T02:50:50.171Z,58.37
2022-10-08T02:53:18.199Z,57.88
2022-10-08T02:55:45.596Z,58.00
2022-10-08T02:58:11.980Z,57.97
2022-10-08T03:00:49.212Z,58.18
2022-10-08T03:03:15.834Z,58.28
2022-10-08T03:05:42.164Z,57.87
2022-10-08T03:08:08.534Z,58.35
2022-10-08T03:10:35.189Z,58.35
2022-10-08T03:13:01.613Z,58.20
2022-10-08T03:15:28.291Z,58.16
2022-10-08T03:17:54.613Z,58.22
2022-10-08T03:20:21.066Z,57.98
2022-10-08T03:22:47.626Z,58.00
2022-10-08T03:25:14.193Z,57.99
2022-10-08T03:27:40.529Z,58.02
2022-10-08T03:30:07.025Z,57.96
2022-10-08T03:32:33.374Z,58.01
2022-10-08T03:34:59.684Z,58.11
2022-10-08T03:37:26.040Z,58.17
2022-10-08T03:39:52.354Z,58.14
2022-10-08T03:42:18.688Z,58.29
2022-10-08T03:44:45.026Z,58.24
2022-10-08T03:47:11.328Z,58.14
2022-10-08T03:49:37.649Z,58.32
2022-10-08T03:52:03.971Z,58.38
2022-10-08T03:54:30.268Z,58.25
2022-10-08T03:56:56.584Z,58.24
2022-10-08T03:59:22.901Z,57.97
2022-10-08T04:01:49.266Z,58.18
2022-10-08T04:04:15.676Z,58.03
2022-10-08T04:06:41.986Z,58.14
2022-10-08T04:09:09.201Z,58.17
2022-10-08T04:11:35.519Z,57.80
2022-10-08T04:14:01.826Z,58.27
2022-10-08T04:16:28.151Z,58.08
2022-10-08T04:18:54.474Z,58.01
2022-10-08T04:21:20.787Z,58.06
2022-10-08T04:23:47.105Z,58.21
2022-10-08T04:26:13.643Z,58.30
2022-10-08T04:28:40.445Z,58.32
2022-10-08T04:31:07.738Z,58.33
2022-10-08T04:33:34.347Z,58.16
2022-10-08T04:36:00.703Z,57.87
2022-10-08T04:38:27.206Z,57.93
2022-10-08T04:41:12.661Z,58.01
2022-10-08T04:43:39.123Z,58.09
2022-10-08T04:46:05.892Z,57.99
2022-10-08T04:48:32.250Z,57.83
2022-10-08T04:50:58.999Z,58.11
2022-10-08T04:53:28.077Z,58.27
2022-10-08T04:55:54.448Z,57.89
2022-10-08T04:58:20.934Z,57.85
2022-10-08T05:00:47.287Z,58.22
2022-10-08T05:03:13.633Z,58.23
2022-10-08T05:05:43.330Z,58.00
2022-10-08T05:08:09.735Z,58.28
2022-10-08T05:10:36.103Z,58.33
2022-10-08T05:13:02.422Z,58.35
2022-10-08T05:15:28.743Z,58.29
2022-10-08T05:17:55.067Z,58.36
2022-10-08T05:20:21.430Z,58.15
2022-10-08T05:22:48.112Z,58.01
2022-10-08T05:25:14.600Z,58.06
2022-10-08T05:27:40.914Z,58.10
2022-10-08T05:30:07.551Z,58.04
2022-10-08T05:32:33.878Z,58.19
2022-10-08T05:35:00.223Z,58.23
2022-10-08T05:37:26.693Z,58.08
2022-10-08T05:39:53.030Z,58.23
2022-10-08T05:42:19.346Z,57.90
2022-10-08T05:44:45.710Z,58.19
2022-10-08T05:47:12.041Z,58.12
2022-10-08T05:49:38.383Z,58.13
2022-10-08T05:52:04.710Z,58.05
2022-10-08T05:54:31.082Z,57.18
2022-10-08T05:56:57.390Z,56.83
2022-10-08T05:59:23.934Z,57.49
2022-10-08T06:01:50.276Z,57.14
2022-10-08T06:04:18.267Z,57.04
2022-10-08T06:06:44.734Z,56.09
2022-10-08T06:09:12.310Z,56.26
2022-10-08T06:11:38.665Z,56.00
2022-10-08T06:14:06.159Z,55.70
2022-10-08T06:16:32.578Z,56.34
2022-10-08T06:18:59.948Z,56.44
2022-10-08T06:21:26.599Z,56.10
2022-10-08T06:23:56.652Z,56.10
2022-10-08T06:26:23.335Z,56.12
2022-10-08T06:28:49.742Z,56.36
2022-10-08T06:31:16.318Z,56.10
2022-10-08T06:33:42.690Z,56.11
2022-10-08T06:36:18.605Z,56.27
2022-10-08T06:38:54.613Z,55.95
2022-10-08T06:41:20.966Z,56.00
2022-10-08T06:43:47.359Z,55.91
2022-10-08T06:46:13.795Z,55.93
2022-10-08T06:48:40.175Z,55.73
2022-10-08T06:51:07.348Z,55.45
2022-10-08T06:53:33.895Z,55.25
2022-10-08T06:56:00.819Z,55.13
2022-10-08T06:58:27.141Z,55.17
2022-10-08T07:01:02.453Z,55.01
2022-10-08T07:03:28.845Z,54.86
2022-10-08T07:05:55.198Z,55.35
2022-10-08T07:08:21.539Z,55.46
2022-10-08T07:10:49.880Z,55.24
2022-10-08T07:13:16.218Z,55.66
2022-10-08T07:15:42.521Z,55.63
2022-10-08T07:18:11.713Z,55.54
2022-10-08T07:20:38.534Z,55.67
2022-10-08T07:23:05.095Z,55.65
2022-10-08T07:25:31.409Z,56.03
2022-10-08T07:27:57.730Z,55.94
2022-10-08T07:30:24.087Z,56.03
2022-10-08T07:32:52.447Z,55.89
2022-10-08T07:35:18.780Z,53.98
2022-10-08T07:37:58.957Z,52.72
2022-10-08T07:40:37.731Z,52.48
2022-10-08T07:43:04.973Z,52.66
2022-10-08T07:45:31.443Z,54.84
2022-10-08T07:47:57.836Z,54.98
2022-10-08T07:50:24.193Z,55.34
2022-10-08T07:52:50.507Z,55.43
2022-10-08T07:55:16.809Z,55.66
2022-10-08T07:57:43.167Z,55.58
2022-10-08T08:00:09.657Z,55.82
2022-10-08T08:02:38.750Z,55.93
2022-10-08T08:05:05.174Z,56.00
2022-10-08T08:07:31.526Z,56.10
2022-10-08T08:09:57.870Z,56.09
2022-10-08T08:12:24.238Z,56.26
2022-10-08T08:14:50.549Z,56.29
2022-10-08T08:17:16.861Z,56.00
2022-10-08T08:19:43.190Z,56.19
2022-10-08T08:22:09.523Z,56.28
2022-10-08T08:24:35.860Z,56.50
2022-10-08T08:27:02.276Z,56.21
2022-10-08T08:29:28.632Z,56.38
2022-10-08T08:31:55.057Z,56.55
2022-10-08T08:34:21.769Z,56.49
2022-10-08T08:36:49.161Z,56.66
2022-10-08T08:39:17.306Z,56.79
2022-10-08T08:42:00.280Z,56.52
2022-10-08T08:44:29.651Z,56.75
2022-10-08T08:47:04.268Z,56.68
2022-10-08T08:49:33.313Z,56.91
2022-10-08T08:52:01.334Z,56.90
2022-10-08T08:54:27.746Z,56.84
2022-10-08T08:56:54.087Z,56.97
2022-10-08T08:59:31.445Z,56.90
2022-10-08T09:02:01.389Z,56.75
2022-10-08T09:04:31.230Z,56.95
2022-10-08T09:06:57.547Z,56.96
2022-10-08T09:09:43.501Z,56.98
2022-10-08T09:12:14.246Z,56.83
2022-10-08T09:14:42.478Z,56.92
2022-10-08T09:17:18.967Z,56.99
2022-10-08T09:19:45.475Z,56.70
2022-10-08T09:22:18.054Z,56.98
2022-10-08T09:24:44.361Z,57.06
2022-10-08T09:27:13.450Z,57.04
2022-10-08T09:29:39.777Z,56.97
2022-10-08T09:32:07.342Z,57.05
2022-10-08T09:34:33.660Z,56.74
2022-10-08T09:37:03.994Z,57.03
2022-10-08T09:39:34.200Z,57.19
2022-10-08T09:42:03.444Z,56.96
2022-10-08T09:44:38.443Z,57.05
2022-10-08T09:47:05.119Z,56.76
2022-10-08T09:49:32.330Z,57.20
2022-10-08T09:52:02.315Z,57.08
2022-10-08T09:54:29.710Z,56.89
2022-10-08T09:56:57.058Z,57.11
2022-10-08T09:59:24.039Z,57.25
2022-10-08T10:01:50.731Z,57.04
2022-10-08T10:04:18.770Z,57.36
2022-10-08T10:06:46.082Z,57.32
2022-10-08T10:09:24.288Z,57.26
2022-10-08T10:11:51.150Z,57.32
2022-10-08T10:14:21.749Z,57.46
2022-10-08T10:16:48.714Z,57.20
2022-10-08T10:19:16.205Z,57.35
2022-10-08T10:21:45.422Z,57.10
2022-10-08T10:24:21.766Z,57.40
2022-10-08T10:26:48.114Z,57.26
2022-10-08T10:29:16.427Z,57.30
2022-10-08T10:31:47.156Z,57.55
2022-10-08T10:34:14.499Z,57.54
2022-10-08T10:36:45.786Z,57.46
2022-10-08T10:39:30.605Z,57.61
2022-10-08T10:42:03.298Z,57.65
2022-10-08T10:44:48.493Z,57.71
2022-10-08T10:47:14.814Z,57.70
2022-10-08T10:49:41.610Z,57.59
2022-10-08T10:52:16.537Z,57.75
2022-10-08T10:54:53.262Z,57.76
2022-10-08T10:57:38.350Z,57.56
2022-10-08T11:00:05.857Z,57.75
2022-10-08T11:02:41.052Z,57.72
2022-10-08T11:05:13.482Z,57.64
2022-10-08T11:07:58.622Z,57.79
2022-10-08T11:10:29.830Z,57.46
2022-10-08T11:12:58.315Z,57.58
2022-10-08T11:15:24.596Z,57.72
2022-10-08T11:17:55.189Z,57.26
2022-10-08T11:20:44.866Z,57.77
2022-10-08T11:23:21.707Z,57.56
2022-10-08T11:26:23.145Z,57.67
2022-10-08T11:29:01.146Z,58.18
2022-10-08T11:31:35.669Z,58.28
2022-10-08T11:34:03.567Z,58.67
2022-10-08T11:36:37.805Z,58.48
2022-10-08T11:39:19.356Z,58.38
2022-10-08T11:41:55.079Z,58.14
2022-10-08T11:44:21.624Z,58.09
2022-10-08T11:46:47.986Z,58.15
2022-10-08T11:49:14.265Z,58.10
2022-10-08T11:51:40.547Z,58.01
2022-10-08T11:54:12.496Z,57.56
2022-10-08T11:56:39.905Z,57.40
2022-10-08T11:59:07.488Z,57.67
2022-10-08T12:01:33.840Z,57.62
2022-10-08T12:04:05.044Z,57.70
2022-10-08T12:06:33.454Z,57.66
2022-10-08T12:09:02.543Z,57.67
2022-10-08T12:11:31.891Z,57.37
2022-10-08T12:14:10.461Z,57.36
2022-10-08T12:16:49.225Z,57.68
2022-10-08T12:19:33.990Z,57.59
2022-10-08T12:22:01.578Z,57.61
2022-10-08T12:24:36.650Z,57.55
2022-10-08T12:27:18.230Z,57.90
2022-10-08T12:30:00.739Z,57.71
2022-10-08T12:32:27.722Z,57.98
2022-10-08T12:34:54.072Z,58.29
2022-10-08T12:37:36.219Z,58.28
2022-10-08T12:40:03.521Z,54.87
2022-10-08T12:42:32.892Z,55.06
2022-10-08T12:45:14.372Z,55.07
2022-10-08T12:47:48.164Z,55.07
2022-10-08T12:50:20.748Z,56.21
2022-10-08T12:52:47.065Z,56.41
2022-10-08T12:55:15.346Z,56.60
2022-10-08T12:57:41.660Z,56.67
2022-10-08T13:00:19.250Z,56.46
2022-10-08T13:02:57.075Z,56.74
2022-10-08T13:05:24.394Z,56.60
2022-10-08T13:07:50.942Z,56.57
2022-10-08T13:10:21.178Z,56.61
2022-10-08T13:12:59.955Z,56.58
2022-10-08T13:15:26.503Z,56.66
2022-10-08T13:17:53.759Z,56.74
2022-10-08T13:20:21.257Z,56.98
2022-10-08T13:22:47.579Z,56.87
2022-10-08T13:25:33.442Z,56.98
2022-10-08T13:28:09.571Z,56.90
2022-10-08T13:30:35.909Z,57.14
2022-10-08T13:33:06.153Z,57.13
2022-10-08T13:35:33.383Z,56.84
2022-10-08T13:37:59.711Z,56.72
2022-10-08T13:40:26.024Z,56.35
2022-10-08T13:42:52.997Z,56.58
2022-10-08T13:45:19.223Z,56.67
2022-10-08T13:47:45.886Z,56.65
2022-10-08T13:50:12.506Z,56.65
2022-10-08T13:52:41.271Z,56.66
2022-10-08T13:55:08.708Z,56.53
2022-10-08T13:57:35.037Z,56.85
2022-10-08T14:00:01.358Z,56.70
2022-10-08T14:02:27.728Z,56.83
2022-10-08T14:04:54.045Z,56.88
2022-10-08T14:07:21.379Z,57.06
2022-10-08T14:09:47.849Z,56.96
2022-10-08T14:12:14.264Z,56.89
2022-10-08T14:14:40.604Z,56.74
2022-10-08T14:17:06.946Z,56.66
2022-10-08T14:19:33.263Z,56.86
2022-10-08T14:21:59.591Z,56.92
2022-10-08T14:24:25.929Z,57.11
2022-10-08T14:26:52.639Z,57.09
2022-10-08T14:29:19.063Z,56.78
2022-10-08T14:31:45.471Z,56.95
2022-10-08T14:34:11.916Z,56.94
2022-10-08T14:36:39.489Z,57.06
2022-10-08T14:39:05.812Z,56.91
2022-10-08T14:41:32.310Z,57.03
2022-10-08T14:43:58.614Z,57.06
2022-10-08T14:46:25.340Z,57.24
2022-10-08T14:48:51.664Z,57.15
2022-10-08T14:51:17.990Z,57.31
2022-10-08T14:53:44.310Z,57.13
2022-10-08T14:56:12.939Z,56.77
2022-10-08T14:58:39.524Z,57.05
2022-10-08T15:01:06.089Z,56.79
2022-10-08T15:03:32.483Z,57.12
2022-10-08T15:05:59.013Z,57.20
2022-10-08T15:08:25.415Z,57.42
2022-10-08T15:10:51.748Z,57.47
2022-10-08T15:13:18.062Z,57.88
2022-10-08T15:15:44.426Z,57.66
2022-10-08T15:18:11.384Z,58.08
2022-10-08T15:20:38.077Z,58.10
2022-10-08T15:23:04.458Z,58.59
2022-10-08T15:25:30.831Z,59.32
2022-10-08T15:27:57.223Z,59.64
2022-10-08T15:30:23.533Z,59.53
2022-10-08T15:32:50.049Z,59.66
2022-10-08T15:35:18.566Z,59.96
2022-10-08T15:37:45.019Z,59.69
2022-10-08T15:40:11.354Z,60.03
2022-10-08T15:42:37.711Z,59.91
2022-10-08T15:45:04.106Z,60.05
2022-10-08T15:47:30.419Z,60.03
2022-10-08T15:49:56.792Z,59.70
2022-10-08T15:52:23.124Z,59.75
2022-10-08T15:54:49.431Z,59.64
2022-10-08T15:57:16.438Z,59.24
2022-10-08T15:59:51.957Z,58.36
2022-10-08T16:02:18.737Z,55.84
2022-10-08T16:04:45.669Z,55.64
2022-10-08T16:07:12.077Z,54.88
2022-10-08T16:09:38.395Z,54.50
2022-10-08T16:12:04.736Z,54.80
2022-10-08T16:14:31.069Z,54.23
2022-10-08T16:16:57.461Z,53.62
2022-10-08T16:19:24.573Z,53.53
2022-10-08T16:21:51.225Z,53.45
2022-10-08T16:24:17.539Z,53.92
2022-10-08T16:26:43.933Z,53.85
2022-10-08T16:29:11.107Z,53.24
2022-10-08T16:31:37.578Z,52.36
2022-10-08T16:34:05.205Z,52.45
2022-10-08T16:36:32.994Z,52.14
2022-10-08T16:38:59.336Z,52.23
2022-10-08T16:41:34.785Z,52.87
2022-10-08T16:44:11.164Z,53.35
2022-10-08T16:46:38.944Z,54.61
2022-10-08T16:49:05.421Z,55.41
2022-10-08T16:51:32.534Z,54.99
2022-10-08T16:53:59.243Z,55.68
2022-10-08T16:56:29.068Z,56.43
2022-10-08T16:58:56.481Z,56.23
2022-10-08T17:01:22.851Z,56.49
2022-10-08T17:03:49.213Z,56.73
2022-10-08T17:06:15.893Z,56.90
2022-10-08T17:08:42.206Z,56.92
2022-10-08T17:11:08.997Z,57.02
2022-10-08T17:13:35.420Z,57.31
2022-10-08T17:16:02.393Z,57.78
2022-10-08T17:18:28.715Z,57.68
2022-10-08T17:20:55.852Z,57.88
2022-10-08T17:23:22.623Z,58.08
2022-10-08T17:25:53.458Z,58.10
2022-10-08T17:28:19.829Z,58.00
2022-10-08T17:30:46.317Z,57.76
2022-10-08T17:33:12.645Z,58.17
2022-10-08T17:35:38.966Z,58.24
2022-10-08T17:38:05.283Z,57.96
2022-10-08T17:40:31.713Z,58.16
2022-10-08T17:42:58.036Z,57.88
2022-10-08T17:45:24.421Z,58.26
2022-10-08T17:47:51.018Z,58.04
2022-10-08T17:50:17.350Z,58.26
2022-10-08T17:52:43.665Z,58.27
2022-10-08T17:55:10.305Z,58.54
2022-10-08T17:57:36.710Z,58.58
2022-10-08T18:00:03.228Z,58.62
2022-10-08T18:02:35.320Z,58.77
2022-10-08T18:05:01.662Z,58.55
2022-10-08T18:07:27.969Z,58.93
2022-10-08T18:09:54.296Z,58.71
2022-10-08T18:12:20.626Z,58.54
2022-10-08T18:14:47.465Z,57.82
2022-10-08T18:17:13.790Z,57.32
2022-10-08T18:19:40.142Z,57.13
2022-10-08T18:22:06.472Z,55.46
2022-10-08T18:24:34.710Z,53.88
2022-10-08T18:27:01.056Z,54.34
2022-10-08T18:29:27.407Z,53.89
2022-10-08T18:31:54.075Z,55.10
2022-10-08T18:34:20.396Z,55.99
2022-10-08T18:36:46.761Z,56.02
2022-10-08T18:39:14.069Z,55.87
2022-10-08T18:41:41.413Z,56.26
2022-10-08T18:44:08.143Z,56.37
2022-10-08T18:46:34.926Z,56.32
2022-10-08T18:49:01.406Z,56.23
2022-10-08T18:51:28.111Z,55.88
2022-10-08T18:53:55.096Z,56.17
2022-10-08T18:56:22.242Z,56.11
2022-10-08T18:58:50.559Z,56.33
2022-10-08T19:01:20.999Z,56.23
2022-10-08T19:03:47.681Z,56.00
2022-10-08T19:06:14.011Z,56.23
2022-10-08T19:08:40.342Z,56.35
2022-10-08T19:11:13.659Z,56.14
2022-10-08T19:13:39.993Z,55.82
2022-10-08T19:16:06.506Z,55.78
2022-10-08T19:18:32.923Z,56.01
2022-10-08T19:21:05.910Z,55.89
2022-10-08T19:23:32.233Z,55.93
2022-10-08T19:25:58.542Z,55.87
2022-10-08T19:28:24.924Z,55.71
2022-10-08T19:30:51.308Z,55.73
2022-10-08T19:33:17.640Z,55.67
2022-10-08T19:35:43.976Z,55.66
2022-10-08T19:38:10.283Z,55.56
2022-10-08T19:40:36.599Z,55.70
2022-10-08T19:43:04.147Z,55.74
2022-10-08T19:45:30.534Z,55.44
2022-10-08T19:47:56.842Z,55.59
2022-10-08T19:50:23.159Z,55.33
2022-10-08T19:52:51.851Z,55.47
2022-10-08T19:55:18.391Z,55.51
2022-10-08T19:57:44.779Z,55.67
2022-10-08T20:00:11.549Z,55.61
2022-10-08T20:02:37.910Z,55.97
2022-10-08T20:05:04.668Z,55.90
2022-10-08T20:07:31.246Z,56.06
2022-10-08T20:09:58.234Z,56.09
2022-10-08T20:12:24.562Z,56.21
2022-10-08T20:14:50.874Z,56.25
2022-10-08T20:17:17.178Z,56.20
2022-10-08T20:19:43.489Z,56.20
2022-10-08T20:22:11.950Z,56.29
2022-10-08T20:24:38.489Z,56.28
2022-10-08T20:27:04.817Z,56.20
2022-10-08T20:29:31.390Z,56.13
2022-10-08T20:31:58.009Z,56.18
2022-10-08T20:34:26.884Z,56.06
2022-10-08T20:36:53.299Z,56.05
2022-10-08T20:39:19.974Z,55.90
2022-10-08T20:41:46.309Z,55.75
2022-10-08T20:44:12.644Z,56.07
2022-10-08T20:46:39.009Z,55.86
2022-10-08T20:49:05.842Z,55.77
2022-10-08T20:51:32.264Z,56.04
2022-10-08T20:53:59.385Z,55.86
2022-10-08T20:56:25.733Z,55.48
2022-10-08T20:58:52.341Z,55.71
2022-10-08T21:01:28.677Z,55.57
2022-10-08T21:03:54.999Z,55.53
2022-10-08T21:06:21.989Z,55.88
2022-10-08T21:08:48.657Z,55.80
2022-10-08T21:11:15.882Z,55.59
2022-10-08T21:13:42.223Z,55.69
2022-10-08T21:16:09.410Z,55.74
2022-10-08T21:18:35.750Z,55.35
2022-10-08T21:21:02.977Z,55.41
2022-10-08T21:23:29.357Z,55.48
2022-10-08T21:26:04.835Z,55.20
2022-10-08T21:28:31.245Z,55.23
2022-10-08T21:31:01.832Z,55.25
2022-10-08T21:33:30.447Z,55.35
2022-10-08T21:35:57.174Z,55.07
2022-10-08T21:38:23.803Z,55.30
2022-10-08T21:40:56.506Z,55.20
2022-10-08T21:43:22.862Z,55.10
2022-10-08T21:45:53.143Z,55.01
2022-10-08T21:48:19.502Z,55.11
2022-10-08T21:50:54.163Z,54.94
2022-10-08T21:53:20.508Z,55.08
2022-10-08T21:55:53.387Z,55.11
2022-10-08T21:58:19.697Z,54.85
2022-10-08T22:00:46.325Z,54.97
2022-10-08T22:03:12.654Z,55.06
2022-10-08T22:05:38.969Z,55.16
2022-10-08T22:08:05.298Z,55.04
2022-10-08T22:10:31.736Z,55.15
2022-10-08T22:12:58.122Z,54.97
2022-10-08T22:15:24.505Z,54.73
2022-10-08T22:17:50.818Z,54.86
2022-10-08T22:20:17.123Z,55.08
2022-10-08T22:22:43.426Z,54.90
2022-10-08T22:25:09.755Z,55.01
2022-10-08T22:27:36.078Z,55.23
2022-10-08T22:30:02.391Z,55.13
2022-10-08T22:32:28.718Z,55.15
2022-10-08T22:34:55.037Z,55.18
2022-10-08T22:37:21.372Z,55.41
2022-10-08T22:39:47.693Z,55.21
2022-10-08T22:42:14.007Z,54.86
2022-10-08T22:44:40.326Z,55.07
2022-10-08T22:47:06.639Z,54.97
2022-10-08T22:49:32.966Z,54.96
2022-10-08T22:51:59.278Z,54.81
2022-10-08T22:54:25.801Z,54.83
2022-10-08T22:56:52.111Z,54.87
2022-10-08T22:59:18.423Z,54.77
2022-10-08T23:01:44.771Z,54.54
2022-10-08T23:04:11.141Z,54.79
2022-10-08T23:06:37.458Z,54.71
2022-10-08T23:09:04.845Z,54.77
2022-10-08T23:11:31.731Z,54.74
2022-10-08T23:13:58.479Z,54.50
2022-10-08T23:16:25.233Z,54.70
2022-10-08T23:18:52.571Z,54.74
2022-10-08T23:21:18.886Z,54.68
2022-10-08T23:23:45.544Z,54.69
2022-10-08T23:26:11.925Z,54.71
2022-10-08T23:28:38.432Z,54.42
2022-10-08T23:31:11.825Z,54.41
2022-10-08T23:33:38.479Z,54.36
2022-10-08T23:36:08.254Z,54.45
2022-10-08T23:38:34.735Z,54.69
2022-10-08T23:41:01.294Z,54.37
2022-10-08T23:43:28.399Z,54.43
2022-10-08T23:45:55.282Z,54.31
2022-10-08T23:48:21.684Z,54.25
2022-10-08T23:50:51.472Z,54.32
2022-10-08T23:53:18.270Z,54.26
2022-10-08T23:55:44.574Z,54.32
2022-10-08T23:58:10.957Z,54.16
